sensor_id;sensor_type;location;lat;lon;timestamp;temperature;humidity
10083;DHT22;5080;48.528;8.078;2023-03-01T00:00:13;0.80;99.90
10083;DHT22;5080;48.528;8.078;2023-03-01T00:02:40;0.80;99.90
10083;DHT22;5080;48.528;8.078;2023-03-01T00:05:08;0.70;99.90
10083;DHT22;5080;48.528;8.078;2023-03-01T00:07:35;0.70;99.90
10083;DHT22;5080;48.528;8.078;2023-03-01T00:10:04;0.70;99.90
10083;DHT22;5080;48.528;8.078;2023-03-01T00:12:32;0.80;99.90
10083;DHT22;5080;48.528;8.078;2023-03-01T00:14:59;0.70;99.90
10083;DHT22;5080;48.528;8.078;2023-03-01T00:17:27;0.70;99.90
10083;DHT22;5080;48.528;8.078;2023-03-01T00:19:54;0.80;99.90
10083;DHT22;5080;48.528;8.078;2023-03-01T00:22:21;0.80;99.90
10083;DHT22;5080;48.528;8.078;2023-03-01T00:24:48;0.80;99.90
10083;DHT22;5080;48.528;8.078;2023-03-01T00:27:17;0.80;99.90
10083;DHT22;5080;48.528;8.078;2023-03-01T00:29:45;0.80;99.90
10083;DHT22;5080;48.528;8.078;2023-03-01T00:32:11;0.80;99.90
10083;DHT22;5080;48.528;8.078;2023-03-01T00:34:38;0.70;99.90
10083;DHT22;5080;48.528;8.078;2023-03-01T00:37:05;0.80;99.90
10083;DHT22;5080;48.528;8.078;2023-03-01T00:39:32;0.80;99.90
10083;DHT22;5080;48.528;8.078;2023-03-01T00:41:59;0.70;99.90
10083;DHT22;5080;48.528;8.078;2023-03-01T00:44:27;0.60;99.90
10083;DHT22;5080;48.528;8.078;2023-03-01T00:46:54;0.60;99.90
10083;DHT22;5080;48.528;8.078;2023-03-01T00:49:21;0.50;99.90
10083;DHT22;5080;48.528;8.078;2023-03-01T00:51:49;0.50;99.90
10083;DHT22;5080;48.528;8.078;2023-03-01T00:54:16;0.60;99.90
10083;DHT22;5080;48.528;8.078;2023-03-01T00:56:43;0.60;99.90
10083;DHT22;5080;48.528;8.078;2023-03-01T00:59:10;0.60;99.90
10083;DHT22;5080;48.528;8.078;2023-03-01T01:01:38;0.60;99.90
10083;DHT22;5080;48.528;8.078;2023-03-01T01:04:07;0.70;99.90
10083;DHT22;5080;48.528;8.078;2023-03-01T01:06:36;0.60;99.90
10083;DHT22;5080;48.528;8.078;2023-03-01T01:09:04;0.70;99.90
10083;DHT22;5080;48.528;8.078;2023-03-01T01:11:32;0.70;99.90
10083;DHT22;5080;48.528;8.078;2023-03-01T01:14:00;0.60;99.90
10083;DHT22;5080;48.528;8.078;2023-03-01T01:16:28;0.60;99.90
10083;DHT22;5080;48.528;8.078;2023-03-01T01:18:57;0.50;99.90
10083;DHT22;5080;48.528;8.078;2023-03-01T01:21:25;0.60;99.90
10083;DHT22;5080;48.528;8.078;2023-03-01T01:23:52;0.60;99.90
10083;DHT22;5080;48.528;8.078;2023-03-01T01:26:22;0.60;99.90
10083;DHT22;5080;48.528;8.078;2023-03-01T01:28:49;0.50;99.90
10083;DHT22;5080;48.528;8.078;2023-03-01T01:31:17;0.50;99.90
10083;DHT22;5080;48.528;8.078;2023-03-01T01:33:44;0.50;99.90
10083;DHT22;5080;48.528;8.078;2023-03-01T01:36:13;0.40;99.90
10083;DHT22;5080;48.528;8.078;2023-03-01T01:38:40;0.30;99.90
10083;DHT22;5080;48.528;8.078;2023-03-01T01:41:09;0.30;99.90
10083;DHT22;5080;48.528;8.078;2023-03-01T01:43:38;0.30;99.90
10083;DHT22;5080;48.528;8.078;2023-03-01T01:46:14;0.30;99.90
10083;DHT22;5080;48.528;8.078;2023-03-01T01:48:44;0.30;99.90
10083;DHT22;5080;48.528;8.078;2023-03-01T01:51:16;0.30;99.90
10083;DHT22;5080;48.528;8.078;2023-03-01T01:53:46;0.30;99.90
10083;DHT22;5080;48.528;8.078;2023-03-01T01:56:14;0.30;99.90
10083;DHT22;5080;48.528;8.078;2023-03-01T01:58:43;0.30;99.90
10083;DHT22;5080;48.528;8.078;2023-03-01T02:01:10;0.20;99.90
10083;DHT22;5080;48.528;8.078;2023-03-01T02:03:38;0.30;99.90
10083;DHT22;5080;48.528;8.078;2023-03-01T02:06:15;0.20;99.90
10083;DHT22;5080;48.528;8.078;2023-03-01T02:08:44;0.30;99.90
10083;DHT22;5080;48.528;8.078;2023-03-01T02:11:12;0.40;99.90
10083;DHT22;5080;48.528;8.078;2023-03-01T02:13:41;0.40;99.90
10083;DHT22;5080;48.528;8.078;2023-03-01T02:16:11;0.30;99.90
10083;DHT22;5080;48.528;8.078;2023-03-01T02:18:40;0.30;99.90
10083;DHT22;5080;48.528;8.078;2023-03-01T02:21:20;0.30;99.90
10083;DHT22;5080;48.528;8.078;2023-03-01T02:23:53;0.20;99.90
10083;DHT22;5080;48.528;8.078;2023-03-01T02:26:27;0.20;99.90
10083;DHT22;5080;48.528;8.078;2023-03-01T02:28:58;0.20;99.90
10083;DHT22;5080;48.528;8.078;2023-03-01T02:31:25;0.00;99.90
10083;DHT22;5080;48.528;8.078;2023-03-01T02:34:09;-0.10;99.90
10083;DHT22;5080;48.528;8.078;2023-03-01T02:36:39;-0.10;99.90
10083;DHT22;5080;48.528;8.078;2023-03-01T02:39:10;-0.20;99.90
10083;DHT22;5080;48.528;8.078;2023-03-01T02:41:44;-0.20;99.90
10083;DHT22;5080;48.528;8.078;2023-03-01T02:44:14;-0.10;99.90
10083;DHT22;5080;48.528;8.078;2023-03-01T02:46:43;0.00;99.90
10083;DHT22;5080;48.528;8.078;2023-03-01T02:49:20;0.10;99.90
10083;DHT22;5080;48.528;8.078;2023-03-01T02:54:40;0.00;99.90
10083;DHT22;5080;48.528;8.078;2023-03-01T02:57:08;-0.10;99.90
10083;DHT22;5080;48.528;8.078;2023-03-01T02:59:37;-0.10;99.90
10083;DHT22;5080;48.528;8.078;2023-03-01T03:02:06;-0.10;99.90
10083;DHT22;5080;48.528;8.078;2023-03-01T03:04:33;-0.10;99.90
10083;DHT22;5080;48.528;8.078;2023-03-01T03:07:00;-0.10;99.90
10083;DHT22;5080;48.528;8.078;2023-03-01T03:09:27;0.00;99.90
10083;DHT22;5080;48.528;8.078;2023-03-01T03:11:54;0.00;99.90
10083;DHT22;5080;48.528;8.078;2023-03-01T03:14:20;0.00;99.90
10083;DHT22;5080;48.528;8.078;2023-03-01T03:16:50;-0.10;99.90
10083;DHT22;5080;48.528;8.078;2023-03-01T03:19:18;-0.10;99.90
10083;DHT22;5080;48.528;8.078;2023-03-01T03:21:46;0.00;99.90
10083;DHT22;5080;48.528;8.078;2023-03-01T03:24:12;-0.10;99.90
10083;DHT22;5080;48.528;8.078;2023-03-01T03:26:39;-0.30;99.90
10083;DHT22;5080;48.528;8.078;2023-03-01T03:29:06;-0.30;99.90
10083;DHT22;5080;48.528;8.078;2023-03-01T03:31:33;-0.20;99.90
10083;DHT22;5080;48.528;8.078;2023-03-01T03:34:02;-0.10;99.90
10083;DHT22;5080;48.528;8.078;2023-03-01T03:36:28;-0.10;99.90
10083;DHT22;5080;48.528;8.078;2023-03-01T03:38:55;-0.10;99.90
10083;DHT22;5080;48.528;8.078;2023-03-01T03:41:22;-0.10;99.90
10083;DHT22;5080;48.528;8.078;2023-03-01T03:43:49;0.00;99.90
10083;DHT22;5080;48.528;8.078;2023-03-01T03:46:16;-0.10;99.90
10083;DHT22;5080;48.528;8.078;2023-03-01T03:48:44;-0.10;99.90
10083;DHT22;5080;48.528;8.078;2023-03-01T03:51:14;-0.10;99.90
10083;DHT22;5080;48.528;8.078;2023-03-01T03:53:42;0.00;99.90
10083;DHT22;5080;48.528;8.078;2023-03-01T03:56:09;-0.10;99.90
10083;DHT22;5080;48.528;8.078;2023-03-01T03:58:36;-0.20;99.90
10083;DHT22;5080;48.528;8.078;2023-03-01T04:01:03;-0.30;99.90
10083;DHT22;5080;48.528;8.078;2023-03-01T04:03:32;-0.40;99.90
10083;DHT22;5080;48.528;8.078;2023-03-01T04:06:01;-0.40;99.90
10083;DHT22;5080;48.528;8.078;2023-03-01T04:08:29;-0.40;99.90
10083;DHT22;5080;48.528;8.078;2023-03-01T04:11:00;-0.40;99.90
10083;DHT22;5080;48.528;8.078;2023-03-01T04:13:47;-0.40;99.90
10083;DHT22;5080;48.528;8.078;2023-03-01T04:16:14;-0.40;99.90
10083;DHT22;5080;48.528;8.078;2023-03-01T04:18:41;-0.40;99.90
10083;DHT22;5080;48.528;8.078;2023-03-01T04:21:08;-0.30;99.90
10083;DHT22;5080;48.528;8.078;2023-03-01T04:23:38;-0.30;99.90
10083;DHT22;5080;48.528;8.078;2023-03-01T04:26:06;-0.30;99.90
10083;DHT22;5080;48.528;8.078;2023-03-01T04:28:35;-0.20;99.90
10083;DHT22;5080;48.528;8.078;2023-03-01T04:31:04;-0.20;99.90
10083;DHT22;5080;48.528;8.078;2023-03-01T04:33:38;-0.20;99.90
10083;DHT22;5080;48.528;8.078;2023-03-01T04:36:07;-0.20;99.90
10083;DHT22;5080;48.528;8.078;2023-03-01T04:38:35;-0.30;99.90
10083;DHT22;5080;48.528;8.078;2023-03-01T04:41:04;-0.50;99.90
10083;DHT22;5080;48.528;8.078;2023-03-01T04:43:31;-0.60;99.90
10083;DHT22;5080;48.528;8.078;2023-03-01T04:46:02;-0.60;99.90
10083;DHT22;5080;48.528;8.078;2023-03-01T04:48:30;-0.50;99.90
10083;DHT22;5080;48.528;8.078;2023-03-01T04:50:58;-0.40;99.90
10083;DHT22;5080;48.528;8.078;2023-03-01T04:53:25;-0.30;99.90
10083;DHT22;5080;48.528;8.078;2023-03-01T04:55:53;-0.30;99.90
10083;DHT22;5080;48.528;8.078;2023-03-01T04:58:21;-0.30;99.90
10083;DHT22;5080;48.528;8.078;2023-03-01T05:00:48;-0.30;99.90
10083;DHT22;5080;48.528;8.078;2023-03-01T05:03:15;-0.20;99.90
10083;DHT22;5080;48.528;8.078;2023-03-01T05:05:44;-0.20;99.90
10083;DHT22;5080;48.528;8.078;2023-03-01T05:08:12;-0.20;99.90
10083;DHT22;5080;48.528;8.078;2023-03-01T05:10:43;-0.10;99.90
10083;DHT22;5080;48.528;8.078;2023-03-01T05:13:11;-0.10;99.90
10083;DHT22;5080;48.528;8.078;2023-03-01T05:15:41;0.00;99.90
10083;DHT22;5080;48.528;8.078;2023-03-01T05:18:09;0.00;99.90
10083;DHT22;5080;48.528;8.078;2023-03-01T05:20:37;0.10;99.90
10083;DHT22;5080;48.528;8.078;2023-03-01T05:23:04;0.20;99.90
10083;DHT22;5080;48.528;8.078;2023-03-01T05:25:32;0.10;99.90
10083;DHT22;5080;48.528;8.078;2023-03-01T05:28:00;0.00;99.90
10083;DHT22;5080;48.528;8.078;2023-03-01T05:30:30;0.00;99.90
10083;DHT22;5080;48.528;8.078;2023-03-01T05:32:58;0.00;99.90
10083;DHT22;5080;48.528;8.078;2023-03-01T05:35:25;-0.10;99.90
10083;DHT22;5080;48.528;8.078;2023-03-01T05:37:52;-0.10;99.90
10083;DHT22;5080;48.528;8.078;2023-03-01T05:40:21;0.00;99.90
10083;DHT22;5080;48.528;8.078;2023-03-01T05:42:52;0.00;99.90
10083;DHT22;5080;48.528;8.078;2023-03-01T05:45:19;0.00;99.90
10083;DHT22;5080;48.528;8.078;2023-03-01T05:47:47;0.00;99.90
10083;DHT22;5080;48.528;8.078;2023-03-01T05:50:18;0.00;99.90
10083;DHT22;5080;48.528;8.078;2023-03-01T05:52:46;0.00;99.90
10083;DHT22;5080;48.528;8.078;2023-03-01T05:55:14;0.20;99.90
10083;DHT22;5080;48.528;8.078;2023-03-01T05:57:40;-0.10;99.90
10083;DHT22;5080;48.528;8.078;2023-03-01T06:00:09;0.00;99.90
10083;DHT22;5080;48.528;8.078;2023-03-01T06:02:36;0.00;99.90
10083;DHT22;5080;48.528;8.078;2023-03-01T06:05:04;-0.10;99.90
10083;DHT22;5080;48.528;8.078;2023-03-01T06:07:33;-0.10;99.90
10083;DHT22;5080;48.528;8.078;2023-03-01T06:10:00;0.00;99.90
10083;DHT22;5080;48.528;8.078;2023-03-01T06:12:30;-0.10;99.90
10083;DHT22;5080;48.528;8.078;2023-03-01T06:14:59;-0.10;99.90
10083;DHT22;5080;48.528;8.078;2023-03-01T06:17:29;0.00;99.90
10083;DHT22;5080;48.528;8.078;2023-03-01T06:19:56;0.00;99.90
10083;DHT22;5080;48.528;8.078;2023-03-01T06:22:23;0.00;99.90
10083;DHT22;5080;48.528;8.078;2023-03-01T06:24:52;0.00;99.90
10083;DHT22;5080;48.528;8.078;2023-03-01T06:27:18;0.00;99.90
10083;DHT22;5080;48.528;8.078;2023-03-01T06:29:45;0.10;99.90
10083;DHT22;5080;48.528;8.078;2023-03-01T06:32:12;0.10;99.90
10083;DHT22;5080;48.528;8.078;2023-03-01T06:34:39;0.00;99.90
10083;DHT22;5080;48.528;8.078;2023-03-01T06:37:06;0.00;99.90
10083;DHT22;5080;48.528;8.078;2023-03-01T06:39:33;0.00;99.90
10083;DHT22;5080;48.528;8.078;2023-03-01T06:42:02;0.00;99.90
10083;DHT22;5080;48.528;8.078;2023-03-01T06:44:29;0.10;99.90
10083;DHT22;5080;48.528;8.078;2023-03-01T06:46:56;0.10;99.90
10083;DHT22;5080;48.528;8.078;2023-03-01T06:49:23;0.00;99.90
10083;DHT22;5080;48.528;8.078;2023-03-01T06:51:50;-0.10;99.90
10083;DHT22;5080;48.528;8.078;2023-03-01T06:54:16;-0.10;99.90
10083;DHT22;5080;48.528;8.078;2023-03-01T06:56:46;0.00;99.90
10083;DHT22;5080;48.528;8.078;2023-03-01T06:59:15;0.10;99.90
10083;DHT22;5080;48.528;8.078;2023-03-01T07:01:42;0.00;99.90
10083;DHT22;5080;48.528;8.078;2023-03-01T07:04:09;-0.10;99.90
10083;DHT22;5080;48.528;8.078;2023-03-01T07:06:36;-0.10;99.90
10083;DHT22;5080;48.528;8.078;2023-03-01T07:09:02;-0.30;99.90
10083;DHT22;5080;48.528;8.078;2023-03-01T07:11:29;-0.20;99.90
10083;DHT22;5080;48.528;8.078;2023-03-01T07:13:56;-0.20;99.90
10083;DHT22;5080;48.528;8.078;2023-03-01T07:16:25;-0.20;99.90
10083;DHT22;5080;48.528;8.078;2023-03-01T07:18:52;-0.20;99.90
10083;DHT22;5080;48.528;8.078;2023-03-01T07:21:18;-0.10;99.90
10083;DHT22;5080;48.528;8.078;2023-03-01T07:23:47;0.10;99.90
10083;DHT22;5080;48.528;8.078;2023-03-01T07:26:14;0.10;99.90
10083;DHT22;5080;48.528;8.078;2023-03-01T07:28:40;0.10;99.90
10083;DHT22;5080;48.528;8.078;2023-03-01T07:31:07;0.10;99.90
10083;DHT22;5080;48.528;8.078;2023-03-01T07:33:35;0.10;99.90
10083;DHT22;5080;48.528;8.078;2023-03-01T07:36:04;0.10;99.90
10083;DHT22;5080;48.528;8.078;2023-03-01T07:38:31;0.10;99.90
10083;DHT22;5080;48.528;8.078;2023-03-01T07:40:59;0.10;99.90
10083;DHT22;5080;48.528;8.078;2023-03-01T07:43:26;0.20;99.90
10083;DHT22;5080;48.528;8.078;2023-03-01T07:45:53;0.30;99.90
10083;DHT22;5080;48.528;8.078;2023-03-01T07:48:20;0.30;99.90
10083;DHT22;5080;48.528;8.078;2023-03-01T07:50:48;0.50;99.90
10083;DHT22;5080;48.528;8.078;2023-03-01T07:53:15;0.50;99.90
10083;DHT22;5080;48.528;8.078;2023-03-01T07:55:42;0.50;99.90
10083;DHT22;5080;48.528;8.078;2023-03-01T07:58:09;0.60;99.90
10083;DHT22;5080;48.528;8.078;2023-03-01T08:00:36;0.80;99.90
10083;DHT22;5080;48.528;8.078;2023-03-01T08:03:02;0.80;99.90
10083;DHT22;5080;48.528;8.078;2023-03-01T08:05:29;0.80;99.90
10083;DHT22;5080;48.528;8.078;2023-03-01T08:07:57;0.80;99.90
10083;DHT22;5080;48.528;8.078;2023-03-01T08:10:24;0.80;99.90
10083;DHT22;5080;48.528;8.078;2023-03-01T08:12:51;0.80;99.90
10083;DHT22;5080;48.528;8.078;2023-03-01T08:15:19;0.80;99.90
10083;DHT22;5080;48.528;8.078;2023-03-01T08:17:48;0.60;99.90
10083;DHT22;5080;48.528;8.078;2023-03-01T08:20:15;0.70;99.90
10083;DHT22;5080;48.528;8.078;2023-03-01T08:22:42;0.70;99.90
10083;DHT22;5080;48.528;8.078;2023-03-01T08:25:11;0.70;99.90
10083;DHT22;5080;48.528;8.078;2023-03-01T08:27:37;0.70;99.90
10083;DHT22;5080;48.528;8.078;2023-03-01T08:30:05;0.80;99.90
10083;DHT22;5080;48.528;8.078;2023-03-01T08:32:35;0.80;99.90
10083;DHT22;5080;48.528;8.078;2023-03-01T08:35:03;0.60;99.90
10083;DHT22;5080;48.528;8.078;2023-03-01T08:37:30;0.70;99.90
10083;DHT22;5080;48.528;8.078;2023-03-01T08:39:58;0.60;99.90
10083;DHT22;5080;48.528;8.078;2023-03-01T08:42:26;0.70;99.90
10083;DHT22;5080;48.528;8.078;2023-03-01T08:44:53;0.80;99.90
10083;DHT22;5080;48.528;8.078;2023-03-01T08:47:20;0.90;99.90
10083;DHT22;5080;48.528;8.078;2023-03-01T08:49:48;0.90;99.90
10083;DHT22;5080;48.528;8.078;2023-03-01T08:52:15;1.00;99.90
10083;DHT22;5080;48.528;8.078;2023-03-01T08:54:42;1.00;99.90
10083;DHT22;5080;48.528;8.078;2023-03-01T08:57:09;1.10;99.90
10083;DHT22;5080;48.528;8.078;2023-03-01T08:59:37;1.20;99.90
10083;DHT22;5080;48.528;8.078;2023-03-01T09:02:04;1.30;99.90
10083;DHT22;5080;48.528;8.078;2023-03-01T09:04:31;1.60;99.90
10083;DHT22;5080;48.528;8.078;2023-03-01T09:06:58;1.50;99.90
10083;DHT22;5080;48.528;8.078;2023-03-01T09:09:25;1.50;99.90
10083;DHT22;5080;48.528;8.078;2023-03-01T09:11:52;1.60;99.90
10083;DHT22;5080;48.528;8.078;2023-03-01T09:14:19;1.60;99.90
10083;DHT22;5080;48.528;8.078;2023-03-01T09:16:47;1.60;99.90
10083;DHT22;5080;48.528;8.078;2023-03-01T09:19:14;1.80;99.90
10083;DHT22;5080;48.528;8.078;2023-03-01T09:21:41;2.10;99.90
10083;DHT22;5080;48.528;8.078;2023-03-01T09:24:19;2.20;99.90
10083;DHT22;5080;48.528;8.078;2023-03-01T09:26:46;2.40;99.90
10083;DHT22;5080;48.528;8.078;2023-03-01T09:29:13;2.60;99.90
10083;DHT22;5080;48.528;8.078;2023-03-01T09:31:41;2.90;99.90
10083;DHT22;5080;48.528;8.078;2023-03-01T09:34:09;3.10;99.90
10083;DHT22;5080;48.528;8.078;2023-03-01T09:36:36;3.30;99.90
10083;DHT22;5080;48.528;8.078;2023-03-01T09:39:04;3.40;99.90
10083;DHT22;5080;48.528;8.078;2023-03-01T09:41:43;3.50;99.90
10083;DHT22;5080;48.528;8.078;2023-03-01T09:44:16;3.60;99.90
10083;DHT22;5080;48.528;8.078;2023-03-01T09:46:47;3.80;99.90
10083;DHT22;5080;48.528;8.078;2023-03-01T09:49:18;4.00;99.90
10083;DHT22;5080;48.528;8.078;2023-03-01T09:51:55;4.10;99.90
10083;DHT22;5080;48.528;8.078;2023-03-01T09:54:22;4.20;99.90
10083;DHT22;5080;48.528;8.078;2023-03-01T09:57:01;4.30;99.90
10083;DHT22;5080;48.528;8.078;2023-03-01T09:59:38;4.40;99.90
10083;DHT22;5080;48.528;8.078;2023-03-01T10:02:24;4.50;99.90
10083;DHT22;5080;48.528;8.078;2023-03-01T10:04:56;4.70;99.90
10083;DHT22;5080;48.528;8.078;2023-03-01T10:07:32;4.80;99.90
10083;DHT22;5080;48.528;8.078;2023-03-01T10:10:05;4.80;99.90
10083;DHT22;5080;48.528;8.078;2023-03-01T10:12:35;5.00;99.90
10083;DHT22;5080;48.528;8.078;2023-03-01T10:15:05;4.90;99.90
10083;DHT22;5080;48.528;8.078;2023-03-01T10:17:38;5.00;99.90
10083;DHT22;5080;48.528;8.078;2023-03-01T10:20:20;5.10;99.90
10083;DHT22;5080;48.528;8.078;2023-03-01T10:22:47;5.30;99.90
10083;DHT22;5080;48.528;8.078;2023-03-01T10:25:24;5.30;99.90
10083;DHT22;5080;48.528;8.078;2023-03-01T10:27:53;5.40;99.90
10083;DHT22;5080;48.528;8.078;2023-03-01T10:30:29;5.60;99.90
10083;DHT22;5080;48.528;8.078;2023-03-01T10:32:58;5.70;99.90
10083;DHT22;5080;48.528;8.078;2023-03-01T10:35:29;5.60;99.90
10083;DHT22;5080;48.528;8.078;2023-03-01T10:38:03;5.70;99.90
10083;DHT22;5080;48.528;8.078;2023-03-01T10:40:31;5.80;99.90
10083;DHT22;5080;48.528;8.078;2023-03-01T10:43:00;6.00;99.90
10083;DHT22;5080;48.528;8.078;2023-03-01T10:45:34;6.00;99.90
10083;DHT22;5080;48.528;8.078;2023-03-01T10:48:04;6.20;99.90
10083;DHT22;5080;48.528;8.078;2023-03-01T10:50:33;6.30;99.90
10083;DHT22;5080;48.528;8.078;2023-03-01T10:53:02;6.30;99.90
10083;DHT22;5080;48.528;8.078;2023-03-01T10:55:33;6.40;99.90
10083;DHT22;5080;48.528;8.078;2023-03-01T10:58:16;6.50;99.90
10083;DHT22;5080;48.528;8.078;2023-03-01T11:00:49;6.50;99.90
10083;DHT22;5080;48.528;8.078;2023-03-01T11:03:21;6.60;99.90
10083;DHT22;5080;48.528;8.078;2023-03-01T11:05:56;6.70;99.90
10083;DHT22;5080;48.528;8.078;2023-03-01T11:08:39;6.60;99.90
10083;DHT22;5080;48.528;8.078;2023-03-01T11:11:17;6.80;99.90
10083;DHT22;5080;48.528;8.078;2023-03-01T11:13:53;6.60;99.90
10083;DHT22;5080;48.528;8.078;2023-03-01T11:16:30;6.70;99.90
10083;DHT22;5080;48.528;8.078;2023-03-01T11:19:00;6.90;99.90
10083;DHT22;5080;48.528;8.078;2023-03-01T11:21:30;6.80;99.90
10083;DHT22;5080;48.528;8.078;2023-03-01T11:24:00;6.90;99.90
10083;DHT22;5080;48.528;8.078;2023-03-01T11:26:28;7.00;99.90
10083;DHT22;5080;48.528;8.078;2023-03-01T11:29:00;7.10;99.90
10083;DHT22;5080;48.528;8.078;2023-03-01T11:31:28;7.10;99.90
10083;DHT22;5080;48.528;8.078;2023-03-01T11:33:59;6.90;99.90
10083;DHT22;5080;48.528;8.078;2023-03-01T11:36:32;7.10;99.90
10083;DHT22;5080;48.528;8.078;2023-03-01T11:39:05;7.10;99.90
10083;DHT22;5080;48.528;8.078;2023-03-01T11:41:40;7.10;99.90
10083;DHT22;5080;48.528;8.078;2023-03-01T11:44:16;7.30;99.90
10083;DHT22;5080;48.528;8.078;2023-03-01T11:46:57;7.40;99.90
10083;DHT22;5080;48.528;8.078;2023-03-01T11:52:43;7.30;99.90
10083;DHT22;5080;48.528;8.078;2023-03-01T11:55:28;7.40;99.90
10083;DHT22;5080;48.528;8.078;2023-03-01T11:58:14;7.60;99.90
10083;DHT22;5080;48.528;8.078;2023-03-01T12:00:56;7.50;99.90
10083;DHT22;5080;48.528;8.078;2023-03-01T12:03:38;7.60;99.90
10083;DHT22;5080;48.528;8.078;2023-03-01T12:06:31;7.70;99.90
10083;DHT22;5080;48.528;8.078;2023-03-01T12:09:14;7.80;99.90
10083;DHT22;5080;48.528;8.078;2023-03-01T12:11:54;7.70;99.90
10083;DHT22;5080;48.528;8.078;2023-03-01T12:14:45;7.70;99.90
10083;DHT22;5080;48.528;8.078;2023-03-01T12:17:49;7.60;99.90
10083;DHT22;5080;48.528;8.078;2023-03-01T12:20:28;7.70;99.90
10083;DHT22;5080;48.528;8.078;2023-03-01T12:26:04;7.80;99.90
10083;DHT22;5080;48.528;8.078;2023-03-01T12:28:55;7.90;99.90
10083;DHT22;5080;48.528;8.078;2023-03-01T12:31:41;8.00;99.90
10083;DHT22;5080;48.528;8.078;2023-03-01T12:34:24;7.90;99.90
10083;DHT22;5080;48.528;8.078;2023-03-01T12:37:05;7.80;99.90
10083;DHT22;5080;48.528;8.078;2023-03-01T12:39:45;8.00;99.90
10083;DHT22;5080;48.528;8.078;2023-03-01T12:42:23;8.20;99.90
10083;DHT22;5080;48.528;8.078;2023-03-01T12:45:12;8.20;99.90
10083;DHT22;5080;48.528;8.078;2023-03-01T12:47:57;8.20;99.90
10083;DHT22;5080;48.528;8.078;2023-03-01T12:50:32;8.30;99.90
10083;DHT22;5080;48.528;8.078;2023-03-01T12:53:02;8.30;99.90
10083;DHT22;5080;48.528;8.078;2023-03-01T12:55:33;8.20;99.90
10083;DHT22;5080;48.528;8.078;2023-03-01T12:58:10;8.30;99.90
10083;DHT22;5080;48.528;8.078;2023-03-01T13:00:48;8.40;99.90
10083;DHT22;5080;48.528;8.078;2023-03-01T13:03:24;8.40;99.90
10083;DHT22;5080;48.528;8.078;2023-03-01T13:06:04;8.50;99.90
10083;DHT22;5080;48.528;8.078;2023-03-01T13:08:40;8.40;99.90
10083;DHT22;5080;48.528;8.078;2023-03-01T13:11:16;8.50;99.90
10083;DHT22;5080;48.528;8.078;2023-03-01T13:13:45;8.50;99.90
10083;DHT22;5080;48.528;8.078;2023-03-01T13:19:07;8.70;99.90
10083;DHT22;5080;48.528;8.078;2023-03-01T13:21:35;8.80;99.90
10083;DHT22;5080;48.528;8.078;2023-03-01T13:24:02;8.80;99.90
10083;DHT22;5080;48.528;8.078;2023-03-01T13:26:29;8.90;99.90
10083;DHT22;5080;48.528;8.078;2023-03-01T13:28:58;8.90;99.90
10083;DHT22;5080;48.528;8.078;2023-03-01T13:31:59;8.90;99.90
10083;DHT22;5080;48.528;8.078;2023-03-01T13:34:47;8.70;99.90
10083;DHT22;5080;48.528;8.078;2023-03-01T13:37:33;8.70;99.90
10083;DHT22;5080;48.528;8.078;2023-03-01T13:40:03;8.50;99.90
10083;DHT22;5080;48.528;8.078;2023-03-01T13:42:37;8.40;99.90
10083;DHT22;5080;48.528;8.078;2023-03-01T13:45:24;8.50;99.90
10083;DHT22;5080;48.528;8.078;2023-03-01T13:48:02;8.60;99.90
10083;DHT22;5080;48.528;8.078;2023-03-01T13:50:35;8.80;99.90
10083;DHT22;5080;48.528;8.078;2023-03-01T13:53:05;8.90;99.90
10083;DHT22;5080;48.528;8.078;2023-03-01T13:55:37;8.80;99.90
10083;DHT22;5080;48.528;8.078;2023-03-01T13:58:16;8.80;99.90
10083;DHT22;5080;48.528;8.078;2023-03-01T14:00:46;8.90;99.90
10083;DHT22;5080;48.528;8.078;2023-03-01T14:03:14;9.00;99.90
10083;DHT22;5080;48.528;8.078;2023-03-01T14:05:44;9.00;99.90
10083;DHT22;5080;48.528;8.078;2023-03-01T14:08:26;9.00;99.90
10083;DHT22;5080;48.528;8.078;2023-03-01T14:11:20;9.00;99.90
10083;DHT22;5080;48.528;8.078;2023-03-01T14:13:58;8.90;99.90
10083;DHT22;5080;48.528;8.078;2023-03-01T14:16:37;8.90;99.90
10083;DHT22;5080;48.528;8.078;2023-03-01T14:19:14;9.00;99.90
10083;DHT22;5080;48.528;8.078;2023-03-01T14:21:42;9.20;99.90
10083;DHT22;5080;48.528;8.078;2023-03-01T14:24:17;9.40;99.90
10083;DHT22;5080;48.528;8.078;2023-03-01T14:26:45;9.20;99.90
10083;DHT22;5080;48.528;8.078;2023-03-01T14:29:24;9.30;99.90
10083;DHT22;5080;48.528;8.078;2023-03-01T14:31:52;9.40;99.90
10083;DHT22;5080;48.528;8.078;2023-03-01T14:34:24;9.30;99.90
10083;DHT22;5080;48.528;8.078;2023-03-01T14:36:51;9.30;99.90
10083;DHT22;5080;48.528;8.078;2023-03-01T14:39:20;9.40;99.90
10083;DHT22;5080;48.528;8.078;2023-03-01T14:41:52;9.60;99.90
10083;DHT22;5080;48.528;8.078;2023-03-01T14:44:22;9.60;99.90
10083;DHT22;5080;48.528;8.078;2023-03-01T14:46:54;9.60;99.90
10083;DHT22;5080;48.528;8.078;2023-03-01T14:49:25;9.60;99.90
10083;DHT22;5080;48.528;8.078;2023-03-01T14:51:57;9.80;99.90
10083;DHT22;5080;48.528;8.078;2023-03-01T14:54:27;9.90;99.90
10083;DHT22;5080;48.528;8.078;2023-03-01T14:56:59;9.90;99.90
10083;DHT22;5080;48.528;8.078;2023-03-01T14:59:27;10.00;99.90
10083;DHT22;5080;48.528;8.078;2023-03-01T15:01:57;10.20;99.90
10083;DHT22;5080;48.528;8.078;2023-03-01T15:04:26;10.10;99.90
10083;DHT22;5080;48.528;8.078;2023-03-01T15:06:55;10.20;99.90
10083;DHT22;5080;48.528;8.078;2023-03-01T15:09:22;10.20;99.90
10083;DHT22;5080;48.528;8.078;2023-03-01T15:11:49;10.20;99.90
10083;DHT22;5080;48.528;8.078;2023-03-01T15:14:27;10.20;99.90
10083;DHT22;5080;48.528;8.078;2023-03-01T15:16:56;10.20;99.90
10083;DHT22;5080;48.528;8.078;2023-03-01T15:19:26;10.30;99.90
10083;DHT22;5080;48.528;8.078;2023-03-01T15:21:54;10.30;99.90
10083;DHT22;5080;48.528;8.078;2023-03-01T15:24:24;10.30;99.90
10083;DHT22;5080;48.528;8.078;2023-03-01T15:26:56;10.30;99.90
10083;DHT22;5080;48.528;8.078;2023-03-01T15:29:24;10.40;99.90
10083;DHT22;5080;48.528;8.078;2023-03-01T15:31:58;10.40;99.90
10083;DHT22;5080;48.528;8.078;2023-03-01T15:34:27;10.40;99.90
10083;DHT22;5080;48.528;8.078;2023-03-01T15:36:55;10.30;99.90
10083;DHT22;5080;48.528;8.078;2023-03-01T15:39:41;10.30;99.90
10083;DHT22;5080;48.528;8.078;2023-03-01T15:42:10;10.30;99.90
10083;DHT22;5080;48.528;8.078;2023-03-01T15:44:39;10.30;99.90
10083;DHT22;5080;48.528;8.078;2023-03-01T15:47:25;10.30;99.90
10083;DHT22;5080;48.528;8.078;2023-03-01T15:49:54;10.30;99.90
10083;DHT22;5080;48.528;8.078;2023-03-01T15:52:23;10.30;99.90
10083;DHT22;5080;48.528;8.078;2023-03-01T15:54:55;10.30;99.90
10083;DHT22;5080;48.528;8.078;2023-03-01T15:57:22;10.20;99.90
10083;DHT22;5080;48.528;8.078;2023-03-01T15:59:49;10.20;99.90
10083;DHT22;5080;48.528;8.078;2023-03-01T16:02:15;10.20;99.90
10083;DHT22;5080;48.528;8.078;2023-03-01T16:04:44;10.10;99.90
10083;DHT22;5080;48.528;8.078;2023-03-01T16:07:10;10.10;99.90
10083;DHT22;5080;48.528;8.078;2023-03-01T16:09:37;10.20;99.90
10083;DHT22;5080;48.528;8.078;2023-03-01T16:12:08;10.20;99.90
10083;DHT22;5080;48.528;8.078;2023-03-01T16:14:38;10.20;99.90
10083;DHT22;5080;48.528;8.078;2023-03-01T16:17:04;10.00;99.90
10083;DHT22;5080;48.528;8.078;2023-03-01T16:19:33;9.70;99.90
10083;DHT22;5080;48.528;8.078;2023-03-01T16:22:01;9.60;99.90
10083;DHT22;5080;48.528;8.078;2023-03-01T16:24:28;9.50;99.90
10083;DHT22;5080;48.528;8.078;2023-03-01T16:26:55;9.30;99.90
10083;DHT22;5080;48.528;8.078;2023-03-01T16:29:22;9.30;99.90